Secretariat — WDG2166 — position and weather

sailwx.info

Track history (hours):
 
Tides and Currents Weather Stations Pressure Air Temp Water Temp Dewpoint Dewpoint Depression Visibility Wind Speed Wind Dir Waves Ship Positions

Secretariat

Owner: Turn Services, LLC, New Orleans, LA. More information available from US FCC via Universal Licensing System and Coast Guard Vessel Documentation Center.

Last reported at 2018-Feb-14 21:49 UTC. Time now 2018-Feb-17 20:08 UTC.
Position N 29°32' W 090°51'.

Length 22 m; draft 2.8 m.

Type: Towing. MMSI: 367512840.

Date/timePositionNaut miles runAvg speedWind from/ knotsBaromVisibWave heightAir tempDewpointWater temp
2018-Feb-14 21:49N 29°32' W 090°51'1 4.4
2018-Feb-14 21:30N 29°32' W 090°49'2 4.1
2018-Feb-14 21:00N 29°32' W 090°47'2 3.4
2018-Feb-14 20:30N 29°33' W 090°45'2 3.3
2018-Feb-14 20:00N 29°34' W 090°44'2 3.1
2018-Feb-14 19:30N 29°35' W 090°43'2 3.4
2018-Feb-14 19:00N 29°37' W 090°42'2 4.0
2018-Feb-14 18:30N 29°36' W 090°40'2 3.7
2018-Feb-14 17:59N 29°35' W 090°38'2 3.5
2018-Feb-14 17:30N 29°35' W 090°36'2 3.4
2018-Feb-14 17:00N 29°34' W 090°34'2 3.7
2018-Feb-14 16:30N 29°34' W 090°32'2 4.0
2018-Feb-14 15:59N 29°34' W 090°30'1 0.0
2018-Feb-12 13:09N 29°33' W 090°28'1 4.5
2018-Feb-12 12:59N 29°34' W 090°29'2 4.5
2018-Feb-12 12:30N 29°34' W 090°32'2 4.4
2018-Feb-12 12:00N 29°34' W 090°34'2 4.1
2018-Feb-12 11:30N 29°35' W 090°36'2 3.9
2018-Feb-12 11:00N 29°35' W 090°38'2 3.8
2018-Feb-12 10:30N 29°36' W 090°40'2 3.7
2018-Feb-12 10:00N 29°37' W 090°42'2 3.6
2018-Feb-12 09:30N 29°35' W 090°43'2 3.1
2018-Feb-12 09:00N 29°34' W 090°44'2 3.8
2018-Feb-12 08:30N 29°32' W 090°46'2 4.3
2018-Feb-12 08:00N 29°32' W 090°48'2 4.1
2018-Feb-12 07:30N 29°32' W 090°50'2 3.6
2018-Feb-12 06:52N 29°32' W 090°53'59 1.8
2018-Feb-10 21:59N 29°53' W 091°56'0 0.5
2018-Feb-10 21:24N 29°53' W 091°56'0 0.0
2018-Feb-10 20:56N 29°53' W 091°56'0 0.4
2018-Feb-10 20:30N 29°53' W 091°56'0 0.2
2018-Feb-10 19:58N 29°53' W 091°56'0 0.1
2018-Feb-10 19:17N 29°53' W 091°56'0 0.2
2018-Feb-10 18:55N 29°53' W 091°56'64 1.3
2018-Feb-08 19:00N 29°32' W 090°46'2 3.7
2018-Feb-08 18:30N 29°34' W 090°45'3 3.0
2018-Feb-08 17:30N 29°36' W 090°43'1 1.1
2018-Feb-08 16:30N 29°37' W 090°42'4 2.1
2018-Feb-08 14:30N 29°35' W 090°37'2 3.9
2018-Feb-08 14:00N 29°35' W 090°35'  
Track history (hours):
 
Tides and Currents Weather Stations Pressure Air Temp Water Temp Dewpoint Dewpoint Depression Visibility Wind Speed Wind Dir Waves Ship Positions

Secretariat

Owner: Turn Services, LLC, New Orleans, LA. More information available from US FCC via Universal Licensing System and Coast Guard Vessel Documentation Center.

Last reported at 2018-Feb-14 21:49 UTC. Time now 2018-Feb-17 20:08 UTC.
Position N 29°32' W 090°51'.

Length 22 m; draft 2.8 m.

Type: Towing. MMSI: 367512840.

Date/timePositionNaut miles runAvg speedWind from/ knotsBaromVisibWave heightAir tempDewpointWater temp
2018-Feb-14 21:49N 29°32' W 090°51'1 4.4
2018-Feb-14 21:30N 29°32' W 090°49'2 4.1
2018-Feb-14 21:00N 29°32' W 090°47'2 3.4
2018-Feb-14 20:30N 29°33' W 090°45'2 3.3
2018-Feb-14 20:00N 29°34' W 090°44'2 3.1
2018-Feb-14 19:30N 29°35' W 090°43'2 3.4
2018-Feb-14 19:00N 29°37' W 090°42'2 4.0
2018-Feb-14 18:30N 29°36' W 090°40'2 3.7
2018-Feb-14 17:59N 29°35' W 090°38'2 3.5
2018-Feb-14 17:30N 29°35' W 090°36'2 3.4
2018-Feb-14 17:00N 29°34' W 090°34'2 3.7
2018-Feb-14 16:30N 29°34' W 090°32'2 4.0
2018-Feb-14 15:59N 29°34' W 090°30'1 0.0
2018-Feb-12 13:09N 29°33' W 090°28'1 4.5
2018-Feb-12 12:59N 29°34' W 090°29'2 4.5
2018-Feb-12 12:30N 29°34' W 090°32'2 4.4
2018-Feb-12 12:00N 29°34' W 090°34'2 4.1
2018-Feb-12 11:30N 29°35' W 090°36'2 3.9
2018-Feb-12 11:00N 29°35' W 090°38'2 3.8
2018-Feb-12 10:30N 29°36' W 090°40'2 3.7
2018-Feb-12 10:00N 29°37' W 090°42'2 3.6
2018-Feb-12 09:30N 29°35' W 090°43'2 3.1
2018-Feb-12 09:00N 29°34' W 090°44'2 3.8
2018-Feb-12 08:30N 29°32' W 090°46'2 4.3
2018-Feb-12 08:00N 29°32' W 090°48'2 4.1
2018-Feb-12 07:30N 29°32' W 090°50'2 3.6
2018-Feb-12 06:52N 29°32' W 090°53'59 1.8
2018-Feb-10 21:59N 29°53' W 091°56'0 0.5
2018-Feb-10 21:24N 29°53' W 091°56'0 0.0
2018-Feb-10 20:56N 29°53' W 091°56'0 0.4
2018-Feb-10 20:30N 29°53' W 091°56'0 0.2
2018-Feb-10 19:58N 29°53' W 091°56'0 0.1
2018-Feb-10 19:17N 29°53' W 091°56'0 0.2
2018-Feb-10 18:55N 29°53' W 091°56'64 1.3
2018-Feb-08 19:00N 29°32' W 090°46'2 3.7
2018-Feb-08 18:30N 29°34' W 090°45'3 3.0
2018-Feb-08 17:30N 29°36' W 090°43'1 1.1
2018-Feb-08 16:30N 29°37' W 090°42'4 2.1
2018-Feb-08 14:30N 29°35' W 090°37'2 3.9
2018-Feb-08 14:00N 29°35' W 090°35'  

Dump ship's entire track history